sensor_id;sensor_type;location;lat;lon;timestamp;P1;durP1;ratioP1;P2;durP2;ratioP2
68523;SDS011;55524;51.380;13.372;2022-08-01T00:01:57;2.35;;;2.20;;
68523;SDS011;55524;51.380;13.372;2022-08-01T00:04:24;2.55;;;2.35;;
68523;SDS011;55524;51.380;13.372;2022-08-01T00:06:50;3.42;;;2.30;;
68523;SDS011;55524;51.380;13.372;2022-08-01T00:09:16;3.85;;;2.20;;
68523;SDS011;55524;51.380;13.372;2022-08-01T00:11:42;2.97;;;2.65;;
68523;SDS011;55524;51.380;13.372;2022-08-01T00:14:08;4.00;;;2.40;;
68523;SDS011;55524;51.380;13.372;2022-08-01T00:16:35;2.83;;;2.50;;
68523;SDS011;55524;51.380;13.372;2022-08-01T00:19:01;11.20;;;2.78;;
68523;SDS011;55524;51.380;13.372;2022-08-01T00:21:28;5.75;;;2.30;;
68523;SDS011;55524;51.380;13.372;2022-08-01T00:23:54;3.63;;;2.67;;
68523;SDS011;55524;51.380;13.372;2022-08-01T00:26:21;2.58;;;2.35;;
68523;SDS011;55524;51.380;13.372;2022-08-01T00:28:47;3.78;;;2.42;;
68523;SDS011;55524;51.380;13.372;2022-08-01T00:31:13;4.95;;;2.53;;
68523;SDS011;55524;51.380;13.372;2022-08-01T00:33:39;3.05;;;2.60;;
68523;SDS011;55524;51.380;13.372;2022-08-01T00:36:05;4.50;;;2.67;;
68523;SDS011;55524;51.380;13.372;2022-08-01T00:38:32;4.93;;;2.25;;
68523;SDS011;55524;51.380;13.372;2022-08-01T00:40:58;5.60;;;2.80;;
68523;SDS011;55524;51.380;13.372;2022-08-01T00:43:25;3.17;;;2.88;;
68523;SDS011;55524;51.380;13.372;2022-08-01T00:45:51;3.88;;;2.70;;
68523;SDS011;55524;51.380;13.372;2022-08-01T00:48:17;3.25;;;2.50;;
68523;SDS011;55524;51.380;13.372;2022-08-01T00:50:43;3.13;;;2.58;;
68523;SDS011;55524;51.380;13.372;2022-08-01T00:53:10;3.15;;;2.70;;
68523;SDS011;55524;51.380;13.372;2022-08-01T00:55:36;3.08;;;2.80;;
68523;SDS011;55524;51.380;13.372;2022-08-01T00:58:03;3.17;;;2.40;;
68523;SDS011;55524;51.380;13.372;2022-08-01T01:00:29;2.85;;;2.60;;
68523;SDS011;55524;51.380;13.372;2022-08-01T01:02:55;4.20;;;2.75;;
68523;SDS011;55524;51.380;13.372;2022-08-01T01:05:21;6.72;;;2.85;;
68523;SDS011;55524;51.380;13.372;2022-08-01T01:07:54;4.15;;;2.90;;
68523;SDS011;55524;51.380;13.372;2022-08-01T01:13:16;5.50;;;2.67;;
68523;SDS011;55524;51.380;13.372;2022-08-01T01:16:01;2.85;;;2.65;;
68523;SDS011;55524;51.380;13.372;2022-08-01T01:18:45;2.83;;;2.63;;
68523;SDS011;55524;51.380;13.372;2022-08-01T01:29:13;4.30;;;2.60;;
68523;SDS011;55524;51.380;13.372;2022-08-01T01:32:13;4.32;;;2.58;;
68523;SDS011;55524;51.380;13.372;2022-08-01T01:34:58;3.22;;;2.65;;
68523;SDS011;55524;51.380;13.372;2022-08-01T01:37:31;5.05;;;2.85;;
68523;SDS011;55524;51.380;13.372;2022-08-01T01:39:59;3.33;;;2.88;;
68523;SDS011;55524;51.380;13.372;2022-08-01T01:42:28;5.35;;;2.83;;
68523;SDS011;55524;51.380;13.372;2022-08-01T01:44:56;3.83;;;2.70;;
68523;SDS011;55524;51.380;13.372;2022-08-01T01:47:25;2.80;;;2.60;;
68523;SDS011;55524;51.380;13.372;2022-08-01T01:49:52;4.35;;;2.80;;
68523;SDS011;55524;51.380;13.372;2022-08-01T01:52:22;3.33;;;2.92;;
68523;SDS011;55524;51.380;13.372;2022-08-01T01:54:50;4.50;;;2.75;;
68523;SDS011;55524;51.380;13.372;2022-08-01T01:57:19;4.05;;;2.90;;
68523;SDS011;55524;51.380;13.372;2022-08-01T01:59:46;3.53;;;3.22;;
68523;SDS011;55524;51.380;13.372;2022-08-01T02:02:14;6.38;;;3.10;;
68523;SDS011;55524;51.380;13.372;2022-08-01T02:04:43;3.38;;;2.95;;
68523;SDS011;55524;51.380;13.372;2022-08-01T02:07:12;3.67;;;3.00;;
68523;SDS011;55524;51.380;13.372;2022-08-01T02:09:44;3.30;;;2.78;;
68523;SDS011;55524;51.380;13.372;2022-08-01T02:12:12;3.85;;;3.40;;
68523;SDS011;55524;51.380;13.372;2022-08-01T02:14:41;6.28;;;3.78;;
68523;SDS011;55524;51.380;13.372;2022-08-01T02:17:11;6.47;;;3.40;;
68523;SDS011;55524;51.380;13.372;2022-08-01T02:19:40;3.95;;;3.45;;
68523;SDS011;55524;51.380;13.372;2022-08-01T02:22:11;4.30;;;3.47;;
68523;SDS011;55524;51.380;13.372;2022-08-01T02:24:50;3.10;;;2.80;;
68523;SDS011;55524;51.380;13.372;2022-08-01T02:27:29;3.65;;;3.20;;
68523;SDS011;55524;51.380;13.372;2022-08-01T02:30:06;4.38;;;3.20;;
68523;SDS011;55524;51.380;13.372;2022-08-01T02:32:45;4.63;;;3.10;;
68523;SDS011;55524;51.380;13.372;2022-08-01T02:35:28;4.03;;;3.50;;
68523;SDS011;55524;51.380;13.372;2022-08-01T02:37:59;4.03;;;3.42;;
68523;SDS011;55524;51.380;13.372;2022-08-01T02:40:27;5.03;;;3.30;;
68523;SDS011;55524;51.380;13.372;2022-08-01T02:42:57;4.13;;;3.53;;
68523;SDS011;55524;51.380;13.372;2022-08-01T02:45:26;4.10;;;3.60;;
68523;SDS011;55524;51.380;13.372;2022-08-01T02:47:54;3.97;;;3.60;;
68523;SDS011;55524;51.380;13.372;2022-08-01T02:50:29;4.00;;;3.70;;
68523;SDS011;55524;51.380;13.372;2022-08-01T02:52:57;3.78;;;3.47;;
68523;SDS011;55524;51.380;13.372;2022-08-01T02:55:25;4.00;;;3.70;;
68523;SDS011;55524;51.380;13.372;2022-08-01T02:57:53;3.50;;;3.20;;
68523;SDS011;55524;51.380;13.372;2022-08-01T03:00:20;3.30;;;3.10;;
68523;SDS011;55524;51.380;13.372;2022-08-01T03:02:48;3.38;;;3.10;;
68523;SDS011;55524;51.380;13.372;2022-08-01T03:05:16;3.78;;;3.53;;
68523;SDS011;55524;51.380;13.372;2022-08-01T03:07:43;4.38;;;3.45;;
68523;SDS011;55524;51.380;13.372;2022-08-01T03:10:11;5.85;;;3.40;;
68523;SDS011;55524;51.380;13.372;2022-08-01T03:12:39;3.58;;;3.28;;
68523;SDS011;55524;51.380;13.372;2022-08-01T03:15:07;4.13;;;3.72;;
68523;SDS011;55524;51.380;13.372;2022-08-01T03:17:35;4.70;;;3.30;;
68523;SDS011;55524;51.380;13.372;2022-08-01T03:20:06;4.22;;;3.35;;
68523;SDS011;55524;51.380;13.372;2022-08-01T03:22:33;4.25;;;3.10;;
68523;SDS011;55524;51.380;13.372;2022-08-01T03:25:03;3.33;;;3.10;;
68523;SDS011;55524;51.380;13.372;2022-08-01T03:27:31;4.28;;;3.13;;
68523;SDS011;55524;51.380;13.372;2022-08-01T03:30:01;4.93;;;3.42;;
68523;SDS011;55524;51.380;13.372;2022-08-01T03:32:33;4.75;;;3.45;;
68523;SDS011;55524;51.380;13.372;2022-08-01T03:34:59;13.98;;;3.60;;
68523;SDS011;55524;51.380;13.372;2022-08-01T03:37:26;3.50;;;3.20;;
68523;SDS011;55524;51.380;13.372;2022-08-01T03:39:58;4.50;;;3.85;;
68523;SDS011;55524;51.380;13.372;2022-08-01T03:42:33;3.78;;;3.47;;
68523;SDS011;55524;51.380;13.372;2022-08-01T03:45:05;4.22;;;3.17;;
68523;SDS011;55524;51.380;13.372;2022-08-01T03:47:35;3.50;;;3.20;;
68523;SDS011;55524;51.380;13.372;2022-08-01T03:50:03;5.90;;;3.40;;
68523;SDS011;55524;51.380;13.372;2022-08-01T03:52:32;5.68;;;3.30;;
68523;SDS011;55524;51.380;13.372;2022-08-01T03:55:05;3.53;;;3.28;;
68523;SDS011;55524;51.380;13.372;2022-08-01T03:57:32;4.85;;;3.30;;
68523;SDS011;55524;51.380;13.372;2022-08-01T03:59:59;6.85;;;3.30;;
68523;SDS011;55524;51.380;13.372;2022-08-01T04:04:58;3.53;;;3.22;;
68523;SDS011;55524;51.380;13.372;2022-08-01T04:07:29;3.92;;;3.60;;
68523;SDS011;55524;51.380;13.372;2022-08-01T04:09:57;3.47;;;3.20;;
68523;SDS011;55524;51.380;13.372;2022-08-01T04:12:23;3.95;;;3.17;;
68523;SDS011;55524;51.380;13.372;2022-08-01T04:14:49;5.60;;;3.17;;
68523;SDS011;55524;51.380;13.372;2022-08-01T04:17:16;4.70;;;2.92;;
68523;SDS011;55524;51.380;13.372;2022-08-01T04:19:43;7.93;;;3.40;;
68523;SDS011;55524;51.380;13.372;2022-08-01T04:22:11;5.20;;;3.33;;
68523;SDS011;55524;51.380;13.372;2022-08-01T04:24:38;4.47;;;3.03;;
68523;SDS011;55524;51.380;13.372;2022-08-01T04:27:11;4.40;;;3.47;;
68523;SDS011;55524;51.380;13.372;2022-08-01T04:29:42;4.20;;;3.42;;
68523;SDS011;55524;51.380;13.372;2022-08-01T04:32:11;3.15;;;2.95;;
68523;SDS011;55524;51.380;13.372;2022-08-01T04:34:39;6.35;;;3.47;;
68523;SDS011;55524;51.380;13.372;2022-08-01T04:37:11;69.72;;;9.73;;
68523;SDS011;55524;51.380;13.372;2022-08-01T04:39:41;6.30;;;3.42;;
68523;SDS011;55524;51.380;13.372;2022-08-01T04:42:09;4.22;;;3.83;;
68523;SDS011;55524;51.380;13.372;2022-08-01T04:44:37;3.95;;;3.20;;
68523;SDS011;55524;51.380;13.372;2022-08-01T04:47:03;4.93;;;3.42;;
68523;SDS011;55524;51.380;13.372;2022-08-01T04:49:32;12.05;;;4.25;;
68523;SDS011;55524;51.380;13.372;2022-08-01T04:51:59;12.65;;;4.40;;
68523;SDS011;55524;51.380;13.372;2022-08-01T04:54:26;4.25;;;3.13;;
68523;SDS011;55524;51.380;13.372;2022-08-01T04:56:54;7.97;;;4.03;;
68523;SDS011;55524;51.380;13.372;2022-08-01T04:59:25;12.30;;;3.30;;
68523;SDS011;55524;51.380;13.372;2022-08-01T05:02:12;5.43;;;3.00;;
68523;SDS011;55524;51.380;13.372;2022-08-01T05:04:40;3.17;;;2.88;;
68523;SDS011;55524;51.380;13.372;2022-08-01T05:07:07;3.53;;;2.95;;
68523;SDS011;55524;51.380;13.372;2022-08-01T05:09:35;5.95;;;2.95;;
68523;SDS011;55524;51.380;13.372;2022-08-01T05:12:02;11.18;;;3.13;;
68523;SDS011;55524;51.380;13.372;2022-08-01T05:14:30;4.22;;;3.20;;
68523;SDS011;55524;51.380;13.372;2022-08-01T05:17:01;3.05;;;2.85;;
68523;SDS011;55524;51.380;13.372;2022-08-01T05:21:57;14.63;;;3.75;;
68523;SDS011;55524;51.380;13.372;2022-08-01T05:24:25;12.45;;;3.53;;
68523;SDS011;55524;51.380;13.372;2022-08-01T05:26:55;10.75;;;3.00;;
68523;SDS011;55524;51.380;13.372;2022-08-01T05:29:22;3.40;;;3.10;;
68523;SDS011;55524;51.380;13.372;2022-08-01T05:31:49;66.13;;;9.25;;
68523;SDS011;55524;51.380;13.372;2022-08-01T05:34:15;9.88;;;3.42;;
68523;SDS011;55524;51.380;13.372;2022-08-01T05:36:42;36.03;;;6.50;;
68523;SDS011;55524;51.380;13.372;2022-08-01T05:39:08;26.13;;;3.80;;
68523;SDS011;55524;51.380;13.372;2022-08-01T05:41:35;3.03;;;2.80;;
68523;SDS011;55524;51.380;13.372;2022-08-01T05:44:02;6.60;;;2.67;;
68523;SDS011;55524;51.380;13.372;2022-08-01T05:46:29;12.48;;;3.80;;
68523;SDS011;55524;51.380;13.372;2022-08-01T05:48:58;6.68;;;3.00;;
68523;SDS011;55524;51.380;13.372;2022-08-01T05:51:26;4.30;;;2.60;;
68523;SDS011;55524;51.380;13.372;2022-08-01T05:53:52;6.90;;;2.92;;
68523;SDS011;55524;51.380;13.372;2022-08-01T05:56:19;6.03;;;3.30;;
68523;SDS011;55524;51.380;13.372;2022-08-01T05:58:46;16.45;;;3.67;;
68523;SDS011;55524;51.380;13.372;2022-08-01T06:01:14;4.70;;;3.38;;
68523;SDS011;55524;51.380;13.372;2022-08-01T06:03:41;5.40;;;3.47;;
68523;SDS011;55524;51.380;13.372;2022-08-01T06:06:07;6.20;;;3.13;;
68523;SDS011;55524;51.380;13.372;2022-08-01T06:08:33;4.72;;;2.95;;
68523;SDS011;55524;51.380;13.372;2022-08-01T06:10:59;3.95;;;2.80;;
68523;SDS011;55524;51.380;13.372;2022-08-01T06:13:26;2.83;;;2.60;;
68523;SDS011;55524;51.380;13.372;2022-08-01T06:15:52;5.05;;;3.03;;
68523;SDS011;55524;51.380;13.372;2022-08-01T06:18:19;3.30;;;3.00;;
68523;SDS011;55524;51.380;13.372;2022-08-01T06:20:45;4.60;;;3.10;;
68523;SDS011;55524;51.380;13.372;2022-08-01T06:23:12;2.90;;;2.63;;
68523;SDS011;55524;51.380;13.372;2022-08-01T06:25:41;5.03;;;2.92;;
68523;SDS011;55524;51.380;13.372;2022-08-01T06:28:07;3.35;;;2.80;;
68523;SDS011;55524;51.380;13.372;2022-08-01T06:30:34;5.72;;;2.90;;
68523;SDS011;55524;51.380;13.372;2022-08-01T06:33:00;3.42;;;2.60;;
68523;SDS011;55524;51.380;13.372;2022-08-01T06:35:27;4.10;;;2.63;;
68523;SDS011;55524;51.380;13.372;2022-08-01T06:37:55;3.08;;;2.78;;
68523;SDS011;55524;51.380;13.372;2022-08-01T06:40:22;3.83;;;2.42;;
68523;SDS011;55524;51.380;13.372;2022-08-01T06:42:49;2.92;;;2.63;;
68523;SDS011;55524;51.380;13.372;2022-08-01T06:45:15;3.40;;;2.50;;
68523;SDS011;55524;51.380;13.372;2022-08-01T06:47:43;15.20;;;3.30;;
68523;SDS011;55524;51.380;13.372;2022-08-01T06:50:10;2.58;;;2.38;;
68523;SDS011;55524;51.380;13.372;2022-08-01T06:52:36;2.95;;;2.50;;
68523;SDS011;55524;51.380;13.372;2022-08-01T06:55:03;2.65;;;2.45;;
68523;SDS011;55524;51.380;13.372;2022-08-01T06:57:30;4.32;;;2.53;;
68523;SDS011;55524;51.380;13.372;2022-08-01T06:59:56;3.03;;;2.72;;
68523;SDS011;55524;51.380;13.372;2022-08-01T07:02:23;2.67;;;2.50;;
68523;SDS011;55524;51.380;13.372;2022-08-01T07:04:49;5.43;;;2.42;;
68523;SDS011;55524;51.380;13.372;2022-08-01T07:07:15;4.70;;;2.40;;
68523;SDS011;55524;51.380;13.372;2022-08-01T07:09:41;2.15;;;1.95;;
68523;SDS011;55524;51.380;13.372;2022-08-01T07:12:08;3.15;;;2.20;;
68523;SDS011;55524;51.380;13.372;2022-08-01T07:14:34;2.50;;;2.30;;
68523;SDS011;55524;51.380;13.372;2022-08-01T07:17:00;2.42;;;2.17;;
68523;SDS011;55524;51.380;13.372;2022-08-01T07:19:27;2.70;;;2.30;;
68523;SDS011;55524;51.380;13.372;2022-08-01T07:21:53;5.53;;;2.40;;
68523;SDS011;55524;51.380;13.372;2022-08-01T07:24:19;2.30;;;2.10;;
68523;SDS011;55524;51.380;13.372;2022-08-01T07:26:46;6.72;;;2.67;;
68523;SDS011;55524;51.380;13.372;2022-08-01T07:29:14;8.10;;;2.00;;
68523;SDS011;55524;51.380;13.372;2022-08-01T07:31:40;2.20;;;2.00;;
68523;SDS011;55524;51.380;13.372;2022-08-01T07:34:06;3.05;;;1.65;;
68523;SDS011;55524;51.380;13.372;2022-08-01T07:36:33;1.67;;;1.58;;
68523;SDS011;55524;51.380;13.372;2022-08-01T07:38:59;4.20;;;1.98;;
68523;SDS011;55524;51.380;13.372;2022-08-01T07:41:25;3.90;;;1.88;;
68523;SDS011;55524;51.380;13.372;2022-08-01T07:43:51;3.75;;;1.70;;
68523;SDS011;55524;51.380;13.372;2022-08-01T07:46:18;4.10;;;1.58;;
68523;SDS011;55524;51.380;13.372;2022-08-01T07:48:47;2.40;;;1.38;;
68523;SDS011;55524;51.380;13.372;2022-08-01T07:51:13;4.57;;;1.50;;
68523;SDS011;55524;51.380;13.372;2022-08-01T07:53:40;4.10;;;1.17;;
68523;SDS011;55524;51.380;13.372;2022-08-01T07:56:06;1.25;;;1.15;;
68523;SDS011;55524;51.380;13.372;2022-08-01T07:58:33;1.50;;;1.40;;
68523;SDS011;55524;51.380;13.372;2022-08-01T08:00:59;1.50;;;1.30;;
68523;SDS011;55524;51.380;13.372;2022-08-01T08:03:26;1.30;;;1.20;;
68523;SDS011;55524;51.380;13.372;2022-08-01T08:05:52;1.55;;;1.35;;
68523;SDS011;55524;51.380;13.372;2022-08-01T08:08:19;1.75;;;1.27;;
68523;SDS011;55524;51.380;13.372;2022-08-01T08:10:45;2.78;;;1.20;;
68523;SDS011;55524;51.380;13.372;2022-08-01T08:13:11;1.73;;;0.90;;
68523;SDS011;55524;51.380;13.372;2022-08-01T08:15:38;2.45;;;1.00;;
68523;SDS011;55524;51.380;13.372;2022-08-01T08:18:04;1.52;;;0.90;;
68523;SDS011;55524;51.380;13.372;2022-08-01T08:20:31;1.00;;;0.90;;
68523;SDS011;55524;51.380;13.372;2022-08-01T08:22:58;1.30;;;1.20;;
68523;SDS011;55524;51.380;13.372;2022-08-01T08:25:24;2.90;;;1.00;;
68523;SDS011;55524;51.380;13.372;2022-08-01T08:27:55;3.20;;;1.10;;
68523;SDS011;55524;51.380;13.372;2022-08-01T08:30:21;4.20;;;1.30;;
68523;SDS011;55524;51.380;13.372;2022-08-01T08:32:53;1.08;;;0.98;;
68523;SDS011;55524;51.380;13.372;2022-08-01T08:35:31;1.17;;;1.10;;
68523;SDS011;55524;51.380;13.372;2022-08-01T08:38:01;1.35;;;0.90;;
68523;SDS011;55524;51.380;13.372;2022-08-01T08:40:30;1.00;;;1.00;;
68523;SDS011;55524;51.380;13.372;2022-08-01T08:43:09;2.88;;;1.13;;
68523;SDS011;55524;51.380;13.372;2022-08-01T08:45:48;1.55;;;1.13;;
68523;SDS011;55524;51.380;13.372;2022-08-01T08:48:25;1.88;;;1.42;;
68523;SDS011;55524;51.380;13.372;2022-08-01T08:50:55;2.97;;;1.70;;
68523;SDS011;55524;51.380;13.372;2022-08-01T08:53:30;1.60;;;1.50;;
68523;SDS011;55524;51.380;13.372;2022-08-01T08:56:15;2.47;;;1.80;;
68523;SDS011;55524;51.380;13.372;2022-08-01T08:58:53;3.30;;;1.83;;
68523;SDS011;55524;51.380;13.372;2022-08-01T09:01:23;1.63;;;1.45;;
68523;SDS011;55524;51.380;13.372;2022-08-01T09:04:03;1.88;;;1.77;;
68523;SDS011;55524;51.380;13.372;2022-08-01T09:06:56;3.45;;;1.50;;
68523;SDS011;55524;51.380;13.372;2022-08-01T09:09:39;1.60;;;1.40;;
68523;SDS011;55524;51.380;13.372;2022-08-01T09:12:05;3.38;;;1.83;;
68523;SDS011;55524;51.380;13.372;2022-08-01T09:14:31;1.55;;;1.35;;
68523;SDS011;55524;51.380;13.372;2022-08-01T09:17:01;1.50;;;1.40;;
68523;SDS011;55524;51.380;13.372;2022-08-01T09:22:11;4.03;;;1.63;;
68523;SDS011;55524;51.380;13.372;2022-08-01T09:24:56;1.77;;;1.63;;
68523;SDS011;55524;51.380;13.372;2022-08-01T09:27:33;1.83;;;1.53;;
68523;SDS011;55524;51.380;13.372;2022-08-01T09:30:33;4.53;;;1.95;;
68523;SDS011;55524;51.380;13.372;2022-08-01T09:32:59;4.85;;;1.20;;
68523;SDS011;55524;51.380;13.372;2022-08-01T09:35:58;4.65;;;1.10;;
68523;SDS011;55524;51.380;13.372;2022-08-01T09:38:48;15.23;;;1.58;;
68523;SDS011;55524;51.380;13.372;2022-08-01T09:41:28;1.05;;;0.57;;
68523;SDS011;55524;51.380;13.372;2022-08-01T09:44:07;1.55;;;0.70;;
68523;SDS011;55524;51.380;13.372;2022-08-01T09:46:54;2.50;;;0.70;;
68523;SDS011;55524;51.380;13.372;2022-08-01T09:49:53;2.92;;;0.80;;
68523;SDS011;55524;51.380;13.372;2022-08-01T09:52:41;11.85;;;1.67;;
68523;SDS011;55524;51.380;13.372;2022-08-01T09:55:20;2.05;;;0.85;;
68523;SDS011;55524;51.380;13.372;2022-08-01T09:58:10;2.90;;;0.60;;
68523;SDS011;55524;51.380;13.372;2022-08-01T10:00:40;3.25;;;0.60;;
68523;SDS011;55524;51.380;13.372;2022-08-01T10:03:24;1.42;;;0.50;;
68523;SDS011;55524;51.380;13.372;2022-08-01T10:05:55;2.83;;;0.77;;
68523;SDS011;55524;51.380;13.372;2022-08-01T10:08:24;1.10;;;0.60;;
68523;SDS011;55524;51.380;13.372;2022-08-01T10:14:14;1.08;;;0.82;;
68523;SDS011;55524;51.380;13.372;2022-08-01T10:16:46;2.45;;;0.57;;
68523;SDS011;55524;51.380;13.372;2022-08-01T10:19:35;1.77;;;0.63;;
68523;SDS011;55524;51.380;13.372;2022-08-01T10:22:14;0.60;;;0.60;;
68523;SDS011;55524;51.380;13.372;2022-08-01T10:24:47;1.25;;;0.40;;
68523;SDS011;55524;51.380;13.372;2022-08-01T10:27:29;0.50;;;0.50;;
68523;SDS011;55524;51.380;13.372;2022-08-01T10:30:21;0.57;;;0.57;;
68523;SDS011;55524;51.380;13.372;2022-08-01T10:32:53;2.80;;;0.60;;
68523;SDS011;55524;51.380;13.372;2022-08-01T10:35:38;1.13;;;0.50;;
68523;SDS011;55524;51.380;13.372;2022-08-01T10:38:06;8.15;;;0.80;;
68523;SDS011;55524;51.380;13.372;2022-08-01T10:40:33;1.20;;;0.80;;
68523;SDS011;55524;51.380;13.372;2022-08-01T10:43:00;3.67;;;1.00;;
68523;SDS011;55524;51.380;13.372;2022-08-01T10:45:27;2.95;;;1.25;;
68523;SDS011;55524;51.380;13.372;2022-08-01T10:50:31;2.42;;;0.80;;
68523;SDS011;55524;51.380;13.372;2022-08-01T11:03:39;0.70;;;0.70;;
68523;SDS011;55524;51.380;13.372;2022-08-01T11:06:16;3.00;;;0.90;;
68523;SDS011;55524;51.380;13.372;2022-08-01T11:08:52;0.65;;;0.65;;
68523;SDS011;55524;51.380;13.372;2022-08-01T11:11:19;8.10;;;1.23;;
68523;SDS011;55524;51.380;13.372;2022-08-01T11:14:07;3.38;;;0.80;;
68523;SDS011;55524;51.380;13.372;2022-08-01T11:16:35;5.45;;;0.90;;
68523;SDS011;55524;51.380;13.372;2022-08-01T11:19:03;3.60;;;0.80;;
68523;SDS011;55524;51.380;13.372;2022-08-01T11:21:57;4.35;;;0.73;;
68523;SDS011;55524;51.380;13.372;2022-08-01T11:25:02;2.28;;;0.80;;
68523;SDS011;55524;51.380;13.372;2022-08-01T11:27:16;0.70;;;0.70;;
68523;SDS011;55524;51.380;13.372;2022-08-01T11:32:47;3.30;;;0.80;;
68523;SDS011;55524;51.380;13.372;2022-08-01T11:35:15;2.75;;;0.80;;
68523;SDS011;55524;51.380;13.372;2022-08-01T11:37:43;4.82;;;1.05;;
68523;SDS011;55524;51.380;13.372;2022-08-01T11:40:19;2.88;;;0.82;;
68523;SDS011;55524;51.380;13.372;2022-08-01T11:43:37;2.17;;;0.70;;
68523;SDS011;55524;51.380;13.372;2022-08-01T11:45:48;1.40;;;0.70;;
68523;SDS011;55524;51.380;13.372;2022-08-01T11:48:20;1.92;;;0.90;;
68523;SDS011;55524;51.380;13.372;2022-08-01T11:50:56;2.50;;;0.77;;
68523;SDS011;55524;51.380;13.372;2022-08-01T11:53:23;1.85;;;0.93;;
68523;SDS011;55524;51.380;13.372;2022-08-01T11:55:50;2.20;;;0.70;;
68523;SDS011;55524;51.380;13.372;2022-08-01T11:58:26;6.93;;;1.10;;
68523;SDS011;55524;51.380;13.372;2022-08-01T12:00:53;0.70;;;0.70;;
68523;SDS011;55524;51.380;13.372;2022-08-01T12:03:27;2.03;;;0.68;;
68523;SDS011;55524;51.380;13.372;2022-08-01T12:05:55;1.55;;;0.50;;
68523;SDS011;55524;51.380;13.372;2022-08-01T12:08:25;3.60;;;0.70;;
68523;SDS011;55524;51.380;13.372;2022-08-01T12:10:52;2.03;;;0.50;;
68523;SDS011;55524;51.380;13.372;2022-08-01T12:13:19;1.23;;;1.15;;
68523;SDS011;55524;51.380;13.372;2022-08-01T12:15:46;2.53;;;0.77;;
68523;SDS011;55524;51.380;13.372;2022-08-01T12:18:15;2.00;;;0.82;;
68523;SDS011;55524;51.380;13.372;2022-08-01T12:20:43;2.05;;;0.70;;
68523;SDS011;55524;51.380;13.372;2022-08-01T12:23:12;0.70;;;0.70;;
68523;SDS011;55524;51.380;13.372;2022-08-01T12:25:41;2.70;;;1.25;;
68523;SDS011;55524;51.380;13.372;2022-08-01T12:30:54;2.35;;;0.65;;
68523;SDS011;55524;51.380;13.372;2022-08-01T12:33:41;0.60;;;0.60;;
68523;SDS011;55524;51.380;13.372;2022-08-01T12:36:07;0.70;;;0.70;;
68523;SDS011;55524;51.380;13.372;2022-08-01T12:38:34;0.60;;;0.60;;
68523;SDS011;55524;51.380;13.372;2022-08-01T12:41:01;1.85;;;0.70;;
68523;SDS011;55524;51.380;13.372;2022-08-01T12:43:28;3.42;;;0.60;;
68523;SDS011;55524;51.380;13.372;2022-08-01T12:45:59;0.93;;;0.70;;
68523;SDS011;55524;51.380;13.372;2022-08-01T12:48:27;3.22;;;0.75;;
68523;SDS011;55524;51.380;13.372;2022-08-01T12:50:55;1.33;;;0.80;;
68523;SDS011;55524;51.380;13.372;2022-08-01T12:53:25;0.60;;;0.60;;
68523;SDS011;55524;51.380;13.372;2022-08-01T12:55:52;2.38;;;0.77;;
68523;SDS011;55524;51.380;13.372;2022-08-01T12:58:20;1.00;;;0.90;;
68523;SDS011;55524;51.380;13.372;2022-08-01T13:00:48;0.80;;;0.80;;
68523;SDS011;55524;51.380;13.372;2022-08-01T13:03:27;2.42;;;0.88;;
68523;SDS011;55524;51.380;13.372;2022-08-01T13:05:55;0.73;;;0.70;;
68523;SDS011;55524;51.380;13.372;2022-08-01T13:08:24;0.60;;;0.60;;
68523;SDS011;55524;51.380;13.372;2022-08-01T13:13:40;1.70;;;0.63;;
68523;SDS011;55524;51.380;13.372;2022-08-01T13:16:15;1.10;;;0.80;;
68523;SDS011;55524;51.380;13.372;2022-08-01T13:18:52;1.95;;;0.63;;
68523;SDS011;55524;51.380;13.372;2022-08-01T13:21:25;3.53;;;0.55;;
68523;SDS011;55524;51.380;13.372;2022-08-01T13:24:05;1.23;;;0.70;;
68523;SDS011;55524;51.380;13.372;2022-08-01T13:29:05;1.10;;;0.63;;
68523;SDS011;55524;51.380;13.372;2022-08-01T13:31:33;0.60;;;0.60;;
68523;SDS011;55524;51.380;13.372;2022-08-01T13:34:00;0.60;;;0.60;;
68523;SDS011;55524;51.380;13.372;2022-08-01T13:36:27;0.75;;;0.70;;
68523;SDS011;55524;51.380;13.372;2022-08-01T13:38:54;0.70;;;0.70;;
68523;SDS011;55524;51.380;13.372;2022-08-01T13:41:40;3.88;;;0.60;;
68523;SDS011;55524;51.380;13.372;2022-08-01T13:44:06;0.43;;;0.43;;
68523;SDS011;55524;51.380;13.372;2022-08-01T13:46:35;0.43;;;0.40;;
68523;SDS011;55524;51.380;13.372;2022-08-01T13:49:03;1.48;;;0.60;;
68523;SDS011;55524;51.380;13.372;2022-08-01T13:51:31;2.38;;;0.50;;
68523;SDS011;55524;51.380;13.372;2022-08-01T13:53:58;0.50;;;0.50;;
68523;SDS011;55524;51.380;13.372;2022-08-01T13:56:26;2.15;;;0.60;;
68523;SDS011;55524;51.380;13.372;2022-08-01T13:58:53;1.73;;;0.52;;
68523;SDS011;55524;51.380;13.372;2022-08-01T14:01:20;1.27;;;0.50;;
68523;SDS011;55524;51.380;13.372;2022-08-01T14:03:47;4.78;;;0.88;;
68523;SDS011;55524;51.380;13.372;2022-08-01T14:06:16;6.00;;;0.80;;
68523;SDS011;55524;51.380;13.372;2022-08-01T14:08:43;2.58;;;0.75;;
68523;SDS011;55524;51.380;13.372;2022-08-01T14:11:10;5.15;;;0.90;;
68523;SDS011;55524;51.380;13.372;2022-08-01T14:13:41;1.58;;;0.77;;
68523;SDS011;55524;51.380;13.372;2022-08-01T14:16:10;0.60;;;0.60;;
68523;SDS011;55524;51.380;13.372;2022-08-01T14:18:37;0.75;;;0.65;;
68523;SDS011;55524;51.380;13.372;2022-08-01T14:21:03;2.72;;;0.80;;
68523;SDS011;55524;51.380;13.372;2022-08-01T14:23:29;0.50;;;0.50;;
68523;SDS011;55524;51.380;13.372;2022-08-01T14:25:55;0.80;;;0.80;;
68523;SDS011;55524;51.380;13.372;2022-08-01T14:28:22;1.85;;;0.63;;
68523;SDS011;55524;51.380;13.372;2022-08-01T14:30:49;0.93;;;0.73;;
68523;SDS011;55524;51.380;13.372;2022-08-01T14:33:15;5.40;;;0.60;;
68523;SDS011;55524;51.380;13.372;2022-08-01T14:35:42;0.80;;;0.57;;
68523;SDS011;55524;51.380;13.372;2022-08-01T14:38:09;8.27;;;1.02;;
68523;SDS011;55524;51.380;13.372;2022-08-01T14:40:35;4.78;;;0.77;;
68523;SDS011;55524;51.380;13.372;2022-08-01T14:43:01;1.45;;;0.50;;
68523;SDS011;55524;51.380;13.372;2022-08-01T14:45:28;1.95;;;0.77;;
68523;SDS011;55524;51.380;13.372;2022-08-01T14:47:55;4.47;;;0.75;;
68523;SDS011;55524;51.380;13.372;2022-08-01T14:50:22;0.75;;;0.70;;
68523;SDS011;55524;51.380;13.372;2022-08-01T14:52:51;1.98;;;0.60;;
68523;SDS011;55524;51.380;13.372;2022-08-01T14:55:18;0.50;;;0.50;;
68523;SDS011;55524;51.380;13.372;2022-08-01T14:57:48;2.33;;;0.65;;
68523;SDS011;55524;51.380;13.372;2022-08-01T15:00:15;2.60;;;0.60;;
68523;SDS011;55524;51.380;13.372;2022-08-01T15:02:42;0.50;;;0.50;;
68523;SDS011;55524;51.380;13.372;2022-08-01T15:05:09;3.50;;;0.73;;
68523;SDS011;55524;51.380;13.372;2022-08-01T15:07:35;1.15;;;0.60;;
68523;SDS011;55524;51.380;13.372;2022-08-01T15:10:02;0.40;;;0.40;;
68523;SDS011;55524;51.380;13.372;2022-08-01T15:12:30;0.60;;;0.60;;
68523;SDS011;55524;51.380;13.372;2022-08-01T15:14:57;0.70;;;0.70;;
68523;SDS011;55524;51.380;13.372;2022-08-01T15:17:24;0.95;;;0.50;;
68523;SDS011;55524;51.380;13.372;2022-08-01T15:19:57;5.30;;;0.70;;
68523;SDS011;55524;51.380;13.372;2022-08-01T15:22:30;0.55;;;0.55;;
68523;SDS011;55524;51.380;13.372;2022-08-01T15:24:57;1.98;;;0.60;;
68523;SDS011;55524;51.380;13.372;2022-08-01T15:27:25;0.50;;;0.50;;
68523;SDS011;55524;51.380;13.372;2022-08-01T15:29:52;0.50;;;0.50;;
68523;SDS011;55524;51.380;13.372;2022-08-01T15:32:19;1.85;;;0.50;;
68523;SDS011;55524;51.380;13.372;2022-08-01T15:34:47;0.63;;;0.50;;
68523;SDS011;55524;51.380;13.372;2022-08-01T15:37:14;0.90;;;0.47;;